createdAt,value
2018-12-16T00:01:39.109Z,17.07
2018-12-16T00:04:07.331Z,16.35
2018-12-16T00:06:35.592Z,16.02
2018-12-16T00:09:06.113Z,15.03
2018-12-16T00:11:34.629Z,16.15
2018-12-16T00:14:02.799Z,14.93
2018-12-16T00:16:31.083Z,15.20
2018-12-16T00:18:59.384Z,16.37
2018-12-16T00:21:27.597Z,16.27
2018-12-16T00:23:55.811Z,15.72
2018-12-16T00:26:26.029Z,17.62
2018-12-16T00:28:54.363Z,18.02
2018-12-16T00:31:22.546Z,18.17
2018-12-16T00:33:50.811Z,18.00
2018-12-16T00:36:19.033Z,16.40
2018-12-16T00:38:47.251Z,17.77
2018-12-16T00:41:15.487Z,15.48
2018-12-16T00:43:43.780Z,17.62
2018-12-16T00:46:12.127Z,17.92
2018-12-16T00:48:40.371Z,19.00
2018-12-16T00:51:08.715Z,18.95
2018-12-16T00:53:37.077Z,16.20
2018-12-16T00:56:05.314Z,17.45
2018-12-16T00:58:33.531Z,18.67
2018-12-16T01:01:02.468Z,17.42
2018-12-16T01:03:30.787Z,17.57
2018-12-16T01:05:58.981Z,16.50
2018-12-16T01:08:27.297Z,18.52
2018-12-16T01:10:55.499Z,20.70
2018-12-16T01:13:23.723Z,17.60
2018-12-16T01:15:52.179Z,17.52
2018-12-16T01:18:20.866Z,18.23
2018-12-16T01:20:49.055Z,20.30
2018-12-16T01:23:17.272Z,15.78
2018-12-16T01:25:45.502Z,17.10
2018-12-16T01:28:13.704Z,20.32
2018-12-16T01:30:41.989Z,19.20
2018-12-16T01:33:10.264Z,17.90
2018-12-16T01:35:38.494Z,17.42
2018-12-16T01:38:07.004Z,15.83
2018-12-16T01:40:35.390Z,16.67
2018-12-16T01:43:03.581Z,17.75
2018-12-16T01:45:31.904Z,17.48
2018-12-16T01:48:00.180Z,16.77
2018-12-16T01:50:28.559Z,17.02
2018-12-16T01:52:56.775Z,14.05
2018-12-16T01:55:25.193Z,17.07
2018-12-16T01:57:53.559Z,15.05
2018-12-16T02:00:21.943Z,16.42
2018-12-16T02:02:50.283Z,15.83
2018-12-16T02:05:18.525Z,13.75
2018-12-16T02:07:46.934Z,14.73
2018-12-16T02:10:15.343Z,15.05
2018-12-16T02:12:43.560Z,16.17
2018-12-16T02:15:11.974Z,14.90
2018-12-16T02:17:40.237Z,14.53
2018-12-16T02:20:08.667Z,14.20
2018-12-16T02:22:36.890Z,15.63
2018-12-16T02:25:07.273Z,14.25
2018-12-16T02:27:35.559Z,14.75
2018-12-16T02:30:04.596Z,12.95
2018-12-16T02:32:33.163Z,14.55
2018-12-16T02:35:01.352Z,13.55
2018-12-16T02:37:29.556Z,11.88
2018-12-16T02:39:57.777Z,13.45
2018-12-16T02:42:26.223Z,13.50
2018-12-16T02:44:54.576Z,12.15
2018-12-16T02:47:22.874Z,12.35
2018-12-16T02:49:51.176Z,12.87
2018-12-16T02:52:19.731Z,13.60
2018-12-16T02:54:47.945Z,12.82
2018-12-16T02:57:16.266Z,13.85
2018-12-16T02:59:44.514Z,10.45
2018-12-16T03:02:12.800Z,12.40
2018-12-16T03:04:41.191Z,13.32
2018-12-16T03:07:09.845Z,12.18
2018-12-16T03:09:38.132Z,13.28
2018-12-16T03:12:06.520Z,12.53
2018-12-16T03:14:34.751Z,12.25
2018-12-16T03:17:02.973Z,13.18
2018-12-16T03:19:31.309Z,13.13
2018-12-16T03:21:59.607Z,12.23
2018-12-16T03:24:27.916Z,13.05
2018-12-16T03:26:56.162Z,14.13
2018-12-16T03:29:25.601Z,14.95
2018-12-16T03:31:53.884Z,14.23
2018-12-16T03:34:22.158Z,12.60
2018-12-16T03:36:50.429Z,12.25
2018-12-16T03:39:18.728Z,12.40
2018-12-16T03:41:46.955Z,11.95
2018-12-16T03:44:15.228Z,12.75
2018-12-16T03:46:43.510Z,11.95
2018-12-16T03:49:11.723Z,12.78
2018-12-16T03:51:40.063Z,14.40
2018-12-16T03:54:08.285Z,12.78
2018-12-16T03:56:37.219Z,12.88
2018-12-16T03:59:16.887Z,13.85
2018-12-16T04:01:49.684Z,12.28
2018-12-16T04:04:18.160Z,12.88
2018-12-16T04:06:46.380Z,13.93
2018-12-16T04:09:14.636Z,14.98
2018-12-16T04:11:43.099Z,15.30
2018-12-16T04:14:11.313Z,13.53
2018-12-16T04:16:39.636Z,15.15
2018-12-16T04:19:07.916Z,14.58
2018-12-16T04:21:36.125Z,14.70
2018-12-16T04:24:04.677Z,14.05
2018-12-16T04:26:33.025Z,15.90
2018-12-16T04:29:01.403Z,14.93
2018-12-16T04:31:29.650Z,14.47
2018-12-16T04:33:57.897Z,12.65
2018-12-16T04:36:26.216Z,14.25
2018-12-16T04:38:54.419Z,13.40
2018-12-16T04:41:22.680Z,15.40
2018-12-16T04:43:50.872Z,12.78
2018-12-16T04:46:19.130Z,13.17
2018-12-16T04:48:47.419Z,12.45
2018-12-16T04:51:16.219Z,13.85
2018-12-16T04:53:44.476Z,12.25
2018-12-16T04:56:12.967Z,12.47
2018-12-16T04:58:41.289Z,12.07
2018-12-16T05:01:09.567Z,13.28
2018-12-16T05:03:37.796Z,12.87
2018-12-16T05:06:06.026Z,12.03
2018-12-16T05:08:34.319Z,14.10
2018-12-16T05:11:02.628Z,13.05
2018-12-16T05:13:30.826Z,12.25
2018-12-16T05:15:59.250Z,10.98
2018-12-16T05:18:27.795Z,12.65
2018-12-16T05:20:56.029Z,11.18
2018-12-16T05:23:24.227Z,12.10
2018-12-16T05:25:52.482Z,12.28
2018-12-16T05:28:20.676Z,12.33
2018-12-16T05:30:48.951Z,12.23
2018-12-16T05:33:17.243Z,11.40
2018-12-16T05:35:45.468Z,11.35
2018-12-16T05:38:13.700Z,9.90
2018-12-16T05:40:41.967Z,12.70
2018-12-16T05:43:10.215Z,11.87
2018-12-16T05:45:38.423Z,11.50
2018-12-16T05:48:06.737Z,12.75
2018-12-16T05:50:34.951Z,11.23
2018-12-16T05:53:03.166Z,11.10
2018-12-16T05:55:31.404Z,12.88
2018-12-16T05:57:59.789Z,10.35
2018-12-16T06:00:28.007Z,11.75
2018-12-16T06:02:56.435Z,12.80
2018-12-16T06:05:24.688Z,13.85
2018-12-16T06:07:52.899Z,13.22
2018-12-16T06:10:21.119Z,11.80
2018-12-16T06:12:49.429Z,14.75
2018-12-16T06:15:18.013Z,11.15
2018-12-16T06:17:46.218Z,13.22
2018-12-16T06:20:14.452Z,13.22
2018-12-16T06:22:42.783Z,11.90
2018-12-16T06:25:11.393Z,11.90
2018-12-16T06:27:39.659Z,11.20
2018-12-16T06:30:08.512Z,12.30
2018-12-16T06:32:36.725Z,12.55
2018-12-16T06:35:05.219Z,11.85
2018-12-16T06:37:33.420Z,10.97
2018-12-16T06:40:01.631Z,12.65
2018-12-16T06:42:29.847Z,11.27
2018-12-16T06:44:58.051Z,12.15
2018-12-16T06:47:27.896Z,12.23
2018-12-16T06:49:56.130Z,12.93
2018-12-16T06:52:24.532Z,12.90
2018-12-16T06:54:52.744Z,12.10
2018-12-16T06:57:21.035Z,10.38
2018-12-16T06:59:49.278Z,10.88
2018-12-16T07:02:17.470Z,11.83
2018-12-16T07:04:45.699Z,11.57
2018-12-16T07:07:13.987Z,12.78
2018-12-16T07:09:42.357Z,12.33
2018-12-16T07:12:10.573Z,11.10
2018-12-16T07:14:38.912Z,11.25
2018-12-16T07:17:07.104Z,12.30
2018-12-16T07:19:35.317Z,11.07
2018-12-16T07:22:04.238Z,10.87
2018-12-16T07:24:32.516Z,8.73
2018-12-16T07:27:00.800Z,9.80
2018-12-16T07:29:29.089Z,10.60
2018-12-16T07:31:57.484Z,11.80
2018-12-16T07:34:25.867Z,10.05
2018-12-16T07:36:54.178Z,10.65
2018-12-16T07:39:22.528Z,10.17
2018-12-16T07:41:50.768Z,9.33
2018-12-16T07:44:19.061Z,8.35
2018-12-16T07:46:47.350Z,8.93
2018-12-16T07:49:15.613Z,9.40
2018-12-16T07:51:43.885Z,9.68
2018-12-16T07:54:16.035Z,11.23
2018-12-16T07:56:42.498Z,10.20
2018-12-16T07:59:10.787Z,10.18
2018-12-16T08:01:38.981Z,9.53
2018-12-16T08:04:07.202Z,10.83
2018-12-16T08:06:35.452Z,10.00
2018-12-16T08:09:05.480Z,9.87
2018-12-16T08:11:33.731Z,9.20
2018-12-16T08:14:02.203Z,9.07
2018-12-16T08:16:31.040Z,10.47
2018-12-16T08:18:59.263Z,8.88
2018-12-16T08:21:27.544Z,9.20
2018-12-16T08:23:55.762Z,8.43
2018-12-16T08:26:23.963Z,9.67
2018-12-16T08:28:52.155Z,11.03
2018-12-16T08:31:20.889Z,12.30
2018-12-16T08:33:49.079Z,9.90
2018-12-16T08:36:17.322Z,9.10
2018-12-16T08:38:45.558Z,10.53
2018-12-16T08:41:13.819Z,11.00
2018-12-16T08:43:42.048Z,11.23
2018-12-16T08:46:10.361Z,12.37
2018-12-16T08:48:38.564Z,13.97
2018-12-16T08:51:06.765Z,9.97
2018-12-16T08:53:34.956Z,11.33
2018-12-16T08:56:03.241Z,10.40
2018-12-16T08:58:31.451Z,10.90
2018-12-16T09:00:59.950Z,12.97
2018-12-16T09:03:28.119Z,10.13
2018-12-16T09:05:56.430Z,12.47
2018-12-16T09:08:24.651Z,9.83
2018-12-16T09:10:52.901Z,9.50
2018-12-16T09:13:21.149Z,9.90
2018-12-16T09:15:49.453Z,10.53
2018-12-16T09:18:17.723Z,10.80
2018-12-16T09:20:45.911Z,11.40
2018-12-16T09:23:14.233Z,11.40
2018-12-16T09:25:42.464Z,10.40
2018-12-16T09:28:10.971Z,10.80
2018-12-16T09:30:39.201Z,10.50
2018-12-16T09:33:07.499Z,10.33
2018-12-16T09:35:35.816Z,11.13
2018-12-16T09:38:04.048Z,10.33
2018-12-16T09:40:32.256Z,11.60
2018-12-16T09:43:00.472Z,11.27
2018-12-16T09:45:28.691Z,9.43
2018-12-16T09:47:57.286Z,11.30
2018-12-16T09:50:25.511Z,9.73
2018-12-16T09:52:53.766Z,11.17
2018-12-16T09:55:21.978Z,11.67
2018-12-16T09:57:50.188Z,11.90
2018-12-16T10:00:18.383Z,11.80
2018-12-16T10:02:46.590Z,11.90
2018-12-16T10:05:15.115Z,10.33
2018-12-16T10:07:43.515Z,10.50
2018-12-16T10:10:11.828Z,10.90
2018-12-16T10:12:40.245Z,10.87
2018-12-16T10:15:08.631Z,10.80
2018-12-16T10:17:36.827Z,10.87
2018-12-16T10:20:06.417Z,10.90
2018-12-16T10:22:34.650Z,11.57
2018-12-16T10:25:03.027Z,11.53
2018-12-16T10:27:31.324Z,11.30
2018-12-16T10:29:59.519Z,10.97
2018-12-16T10:32:27.727Z,10.60
2018-12-16T10:34:55.950Z,10.73
2018-12-16T10:37:24.146Z,10.90
2018-12-16T10:39:52.460Z,10.60
2018-12-16T10:42:20.655Z,11.53
2018-12-16T10:44:48.861Z,11.50
2018-12-16T10:47:17.089Z,11.20
2018-12-16T10:49:45.316Z,10.03
2018-12-16T10:52:13.942Z,10.43
2018-12-16T10:54:42.242Z,12.10
2018-12-16T10:57:10.462Z,10.37
2018-12-16T10:59:38.676Z,11.20
2018-12-16T11:02:07.212Z,10.90
2018-12-16T11:04:35.499Z,9.63
2018-12-16T11:07:03.803Z,10.60
2018-12-16T11:09:32.007Z,10.50
2018-12-16T11:12:00.424Z,12.87
2018-12-16T11:14:29.042Z,11.40
2018-12-16T11:16:57.220Z,12.10
2018-12-16T11:19:25.536Z,11.60
2018-12-16T11:21:53.759Z,11.50
2018-12-16T11:24:21.983Z,11.17
2018-12-16T11:26:50.212Z,11.13
2018-12-16T11:29:18.919Z,10.83
2018-12-16T11:31:47.188Z,12.10
2018-12-16T11:34:15.597Z,10.67
2018-12-16T11:36:44.115Z,10.07
2018-12-16T11:39:12.307Z,12.40
2018-12-16T11:41:40.663Z,10.73
2018-12-16T11:44:08.839Z,11.70
2018-12-16T11:46:37.377Z,10.80
2018-12-16T11:49:05.811Z,10.80
2018-12-16T11:51:34.018Z,10.93
2018-12-16T11:54:02.222Z,10.50
2018-12-16T11:56:30.663Z,11.60
2018-12-16T11:58:59.004Z,10.90
2018-12-16T12:01:27.226Z,12.13
2018-12-16T12:03:55.600Z,11.30
2018-12-16T12:06:23.788Z,11.13
2018-12-16T12:08:52.132Z,12.10
2018-12-16T12:11:20.415Z,12.40
2018-12-16T12:13:48.630Z,14.23
2018-12-16T12:16:16.857Z,13.80
2018-12-16T12:18:45.163Z,12.50
2018-12-16T12:21:13.358Z,12.60
2018-12-16T12:23:41.624Z,13.70
2018-12-16T12:26:10.011Z,13.53
2018-12-16T12:28:38.567Z,13.20
2018-12-16T12:31:06.940Z,13.50
2018-12-16T12:33:35.321Z,14.20
2018-12-16T12:36:03.503Z,13.10
2018-12-16T12:38:31.714Z,13.50
2018-12-16T12:40:59.967Z,12.17
2018-12-16T12:43:28.175Z,14.00
2018-12-16T12:45:56.375Z,13.20
2018-12-16T12:48:24.571Z,14.53
2018-12-16T12:53:58.464Z,12.10
2018-12-16T12:56:26.663Z,12.57
2018-12-16T12:58:54.987Z,12.80
2018-12-16T13:01:23.215Z,13.53
2018-12-16T13:03:51.439Z,13.43
2018-12-16T13:06:19.862Z,12.90
2018-12-16T13:08:48.037Z,13.70
2018-12-16T13:11:16.358Z,15.50
2018-12-16T13:13:44.581Z,14.73
2018-12-16T13:16:12.787Z,13.33
2018-12-16T13:18:41.059Z,14.03
2018-12-16T13:21:09.339Z,14.33
2018-12-16T13:23:37.726Z,16.20
2018-12-16T13:26:06.215Z,13.30
2018-12-16T13:28:34.633Z,14.13
2018-12-16T13:31:02.803Z,13.30
2018-12-16T13:33:31.011Z,15.50
2018-12-16T13:35:59.203Z,13.43
2018-12-16T13:38:27.463Z,13.77
2018-12-16T13:40:55.778Z,13.77
2018-12-16T13:43:24.027Z,13.37
2018-12-16T13:45:52.793Z,12.10
2018-12-16T13:48:21.223Z,14.70
2018-12-16T13:50:49.391Z,15.17
2018-12-16T13:56:24.466Z,13.40
2018-12-16T13:58:52.679Z,14.87
2018-12-16T14:01:21.264Z,13.27
2018-12-16T14:03:49.541Z,12.30
2018-12-16T14:06:17.940Z,13.60
2018-12-16T14:08:46.133Z,12.80
2018-12-16T14:11:14.376Z,12.37
2018-12-16T14:13:42.651Z,13.40
2018-12-16T14:16:10.960Z,10.47
2018-12-16T14:18:39.223Z,13.13
2018-12-16T14:21:07.438Z,11.00
2018-12-16T14:23:35.820Z,12.50
2018-12-16T14:26:04.343Z,12.50
2018-12-16T14:28:32.731Z,12.20
2018-12-16T14:31:00.955Z,12.40
2018-12-16T14:33:29.319Z,11.73
2018-12-16T14:35:57.567Z,13.50
2018-12-16T14:41:30.671Z,12.63
2018-12-16T14:43:58.859Z,13.53
2018-12-16T14:46:27.091Z,14.10
2018-12-16T14:48:55.547Z,12.70
2018-12-16T14:51:23.759Z,13.70
2018-12-16T14:53:52.070Z,14.13
2018-12-16T14:56:20.333Z,14.53
2018-12-16T14:58:48.520Z,15.40
2018-12-16T15:01:16.983Z,14.47
2018-12-16T15:03:45.247Z,14.53
2018-12-16T15:06:13.517Z,15.10
2018-12-16T15:08:41.733Z,13.30
2018-12-16T15:11:10.483Z,13.63
2018-12-16T15:13:38.712Z,11.90
2018-12-16T15:16:07.009Z,12.60
2018-12-16T15:21:25.988Z,10.73
2018-12-16T15:23:54.195Z,11.03
2018-12-16T15:26:22.416Z,12.27
2018-12-16T15:28:50.618Z,13.33
2018-12-16T15:31:19.325Z,13.30
2018-12-16T15:33:47.523Z,14.10
2018-12-16T15:36:15.749Z,12.30
2018-12-16T15:38:43.952Z,12.60
2018-12-16T15:41:12.158Z,13.70
2018-12-16T15:43:40.466Z,12.40
2018-12-16T15:46:08.787Z,13.13
2018-12-16T15:48:37.359Z,12.60
2018-12-16T15:51:05.691Z,13.60
2018-12-16T15:53:34.126Z,12.07
2018-12-16T15:56:09.148Z,11.30
2018-12-16T15:58:33.522Z,10.93
2018-12-16T16:01:01.828Z,11.93
2018-12-16T16:03:30.129Z,11.20
2018-12-16T16:05:58.330Z,11.87
2018-12-16T16:08:26.649Z,11.37
2018-12-16T16:10:55.092Z,11.17
2018-12-16T16:13:23.311Z,10.83
2018-12-16T16:15:51.713Z,10.30
2018-12-16T16:18:20.032Z,10.10
2018-12-16T16:20:48.252Z,10.40
2018-12-16T16:23:16.436Z,10.93
2018-12-16T16:25:44.686Z,9.37
2018-12-16T16:28:12.980Z,9.57
2018-12-16T16:30:41.201Z,9.27
2018-12-16T16:36:00.448Z,10.33
2018-12-16T16:38:28.709Z,10.23
2018-12-16T16:40:57.223Z,10.67
2018-12-16T16:43:25.427Z,10.07
2018-12-16T16:45:53.646Z,10.67
2018-12-16T16:48:21.866Z,10.07
2018-12-16T16:50:50.058Z,12.30
2018-12-16T16:53:18.278Z,10.93
2018-12-16T16:58:36.995Z,10.93
2018-12-16T17:01:05.308Z,11.73
2018-12-16T17:03:33.650Z,12.13
2018-12-16T17:06:01.839Z,10.00
2018-12-16T17:08:30.048Z,9.13
2018-12-16T17:10:58.986Z,9.60
2018-12-16T17:13:27.209Z,9.83
2018-12-16T17:15:55.874Z,8.73
2018-12-16T17:18:37.307Z,8.60
2018-12-16T17:21:05.734Z,8.80
2018-12-16T17:23:33.983Z,8.80
2018-12-16T17:26:02.254Z,9.60
2018-12-16T17:28:30.567Z,11.67
2018-12-16T17:30:58.969Z,10.90
2018-12-16T17:33:27.188Z,16.13
2018-12-16T17:35:55.859Z,17.20
2018-12-16T17:38:24.071Z,15.73
2018-12-16T17:40:52.275Z,14.40
2018-12-16T17:43:20.857Z,13.13
2018-12-16T17:45:49.147Z,13.80
2018-12-16T17:48:17.359Z,12.97
2018-12-16T17:50:45.571Z,12.37
2018-12-16T17:53:13.774Z,12.13
2018-12-16T17:55:41.995Z,11.90
2018-12-16T18:01:01.218Z,10.03
2018-12-16T18:03:29.429Z,9.13
2018-12-16T18:05:57.935Z,9.30
2018-12-16T18:08:26.142Z,9.07
2018-12-16T18:10:54.375Z,9.90
2018-12-16T18:13:22.563Z,9.20
2018-12-16T18:15:50.830Z,9.33
2018-12-16T18:18:19.975Z,10.77
2018-12-16T18:20:48.388Z,9.73
2018-12-16T18:23:16.613Z,12.70
2018-12-16T18:25:44.816Z,13.30
2018-12-16T18:28:13.022Z,13.07
2018-12-16T18:30:41.237Z,12.97
2018-12-16T18:33:09.840Z,13.90
2018-12-16T18:35:38.042Z,13.77
2018-12-16T18:38:06.339Z,13.47
2018-12-16T18:43:25.139Z,14.47
2018-12-16T18:45:53.398Z,14.20
2018-12-16T18:48:21.615Z,14.40
2018-12-16T18:50:49.812Z,17.03
2018-12-16T18:53:18.032Z,13.57
2018-12-16T18:55:46.555Z,12.63
2018-12-16T18:58:14.832Z,13.40
2018-12-16T19:00:43.035Z,12.30
2018-12-16T19:03:11.286Z,12.53
2018-12-16T19:05:39.578Z,11.50
2018-12-16T19:08:07.929Z,11.90
2018-12-16T19:10:36.151Z,12.00
2018-12-16T19:13:04.528Z,13.77
2018-12-16T19:15:32.771Z,13.00
2018-12-16T19:18:00.955Z,11.43
2018-12-16T19:20:29.434Z,13.60
2018-12-16T19:25:49.077Z,14.50
2018-12-16T19:28:17.364Z,15.77
2018-12-16T19:30:45.557Z,15.00
2018-12-16T19:33:13.798Z,15.00
2018-12-16T19:35:42.007Z,14.03
2018-12-16T19:38:10.236Z,13.33
2018-12-16T19:40:38.610Z,14.53
2018-12-16T19:43:06.795Z,14.50
2018-12-16T19:48:25.730Z,14.57
2018-12-16T19:50:53.911Z,13.47
2018-12-16T19:53:22.135Z,15.20
2018-12-16T19:55:50.375Z,15.50
2018-12-16T19:58:18.591Z,14.67
2018-12-16T20:00:46.832Z,14.97
2018-12-16T20:03:15.143Z,15.83
2018-12-16T20:05:48.739Z,12.60
2018-12-16T20:11:08.071Z,12.77
2018-12-16T20:13:36.255Z,10.50
2018-12-16T20:16:04.561Z,12.10
2018-12-16T20:18:32.840Z,11.00
2018-12-16T20:21:01.213Z,11.30
2018-12-16T20:23:29.471Z,11.40
2018-12-16T20:25:57.951Z,11.00
2018-12-16T20:28:26.228Z,10.47
2018-12-16T20:33:45.198Z,11.03
2018-12-16T20:36:13.483Z,10.57
2018-12-16T20:38:41.667Z,10.00
2018-12-16T20:41:10.020Z,9.97
2018-12-16T20:43:38.199Z,10.77
2018-12-16T20:46:06.591Z,10.80
2018-12-16T20:48:34.818Z,11.63
2018-12-16T20:51:03.083Z,11.20
2018-12-16T20:53:31.320Z,10.60
2018-12-16T20:55:59.536Z,9.10
2018-12-16T20:58:27.743Z,10.63
2018-12-16T21:00:55.974Z,9.80
2018-12-16T21:03:24.242Z,10.43
2018-12-16T21:05:52.530Z,10.60
2018-12-16T21:08:20.747Z,10.97
2018-12-16T21:10:48.959Z,9.73
2018-12-16T21:16:13.167Z,10.57
2018-12-16T21:18:41.683Z,10.30
2018-12-16T21:21:09.891Z,11.30
2018-12-16T21:23:38.467Z,9.20
2018-12-16T21:26:06.667Z,10.03
2018-12-16T21:28:34.846Z,9.87
2018-12-16T21:31:03.053Z,10.00
2018-12-16T21:33:31.340Z,10.80
2018-12-16T21:38:50.761Z,11.17
2018-12-16T21:41:19.336Z,10.00
2018-12-16T21:43:47.743Z,10.33
2018-12-16T21:46:15.986Z,10.20
2018-12-16T21:48:44.202Z,10.90
2018-12-16T21:51:12.398Z,12.23
2018-12-16T21:53:40.925Z,11.63
2018-12-16T21:56:09.305Z,12.57
2018-12-16T21:58:37.533Z,13.53
2018-12-16T22:01:05.718Z,14.30
2018-12-16T22:03:34.292Z,14.63
2018-12-16T22:06:02.879Z,13.90
2018-12-16T22:08:31.123Z,12.97
2018-12-16T22:10:59.335Z,12.83
2018-12-16T22:13:27.571Z,12.43
2018-12-16T22:15:55.776Z,12.07
2018-12-16T22:18:24.076Z,12.43
2018-12-16T22:20:52.303Z,12.93
2018-12-16T22:23:20.522Z,11.40
2018-12-16T22:25:48.774Z,12.17
2018-12-16T22:28:17.051Z,11.70
2018-12-16T22:30:45.284Z,12.10
2018-12-16T22:36:04.499Z,10.97
2018-12-16T22:38:32.711Z,11.70
2018-12-16T22:41:01.015Z,10.10
2018-12-16T22:43:29.295Z,10.83
2018-12-16T22:45:57.495Z,10.70
2018-12-16T22:48:25.875Z,9.00
2018-12-16T22:50:54.072Z,10.47
2018-12-16T22:53:22.276Z,9.50
2018-12-16T22:55:50.471Z,10.10
2018-12-16T22:58:19.053Z,9.03
2018-12-16T23:00:53.063Z,10.57
2018-12-16T23:03:21.344Z,9.40
2018-12-16T23:05:49.540Z,8.07
2018-12-16T23:08:17.751Z,7.60
2018-12-16T23:10:46.171Z,9.87
2018-12-16T23:13:14.369Z,8.20
2018-12-16T23:18:33.864Z,7.87
2018-12-16T23:21:02.062Z,7.90
2018-12-16T23:23:30.268Z,8.67
2018-12-16T23:25:58.459Z,8.03
2018-12-16T23:28:26.856Z,7.67
2018-12-16T23:30:55.783Z,7.50
2018-12-16T23:33:24.007Z,7.93
2018-12-16T23:35:52.188Z,8.73
2018-12-16T23:38:20.487Z,7.50
2018-12-16T23:40:48.681Z,9.10
2018-12-16T23:43:16.955Z,9.27
2018-12-16T23:45:45.162Z,9.97
2018-12-16T23:48:13.372Z,8.63
2018-12-16T23:50:41.642Z,9.60
2018-12-16T23:53:10.308Z,8.50
2018-12-16T23:55:38.493Z,8.53
